sensor_id;sensor_type;location;lat;lon;timestamp;P1;durP1;ratioP1;P2;durP2;ratioP2
43580;SDS011;29175;51.030;4.606;2023-03-14T00:01:49;7.72;;;1.95;;
43580;SDS011;29175;51.030;4.606;2023-03-14T00:04:14;7.75;;;2.20;;
43580;SDS011;29175;51.030;4.606;2023-03-14T00:06:40;12.05;;;2.05;;
43580;SDS011;29175;51.030;4.606;2023-03-14T00:09:06;11.02;;;2.83;;
43580;SDS011;29175;51.030;4.606;2023-03-14T00:11:32;8.95;;;2.03;;
43580;SDS011;29175;51.030;4.606;2023-03-14T00:13:58;11.95;;;2.00;;
43580;SDS011;29175;51.030;4.606;2023-03-14T00:16:25;9.63;;;2.47;;
43580;SDS011;29175;51.030;4.606;2023-03-14T00:18:51;9.55;;;3.05;;
43580;SDS011;29175;51.030;4.606;2023-03-14T00:21:17;10.02;;;2.40;;
43580;SDS011;29175;51.030;4.606;2023-03-14T00:23:43;19.95;;;2.20;;
43580;SDS011;29175;51.030;4.606;2023-03-14T00:26:14;12.18;;;2.60;;
43580;SDS011;29175;51.030;4.606;2023-03-14T00:28:41;10.25;;;2.40;;
43580;SDS011;29175;51.030;4.606;2023-03-14T00:31:08;14.10;;;2.40;;
43580;SDS011;29175;51.030;4.606;2023-03-14T00:33:35;10.38;;;2.20;;
43580;SDS011;29175;51.030;4.606;2023-03-14T00:36:04;8.32;;;2.15;;
43580;SDS011;29175;51.030;4.606;2023-03-14T00:38:36;16.25;;;3.05;;
43580;SDS011;29175;51.030;4.606;2023-03-14T00:41:03;13.40;;;3.35;;
43580;SDS011;29175;51.030;4.606;2023-03-14T00:43:33;10.05;;;3.08;;
43580;SDS011;29175;51.030;4.606;2023-03-14T00:45:59;16.23;;;3.20;;
43580;SDS011;29175;51.030;4.606;2023-03-14T00:48:25;13.45;;;3.28;;
43580;SDS011;29175;51.030;4.606;2023-03-14T00:50:51;10.30;;;2.80;;
43580;SDS011;29175;51.030;4.606;2023-03-14T00:53:17;11.98;;;2.78;;
43580;SDS011;29175;51.030;4.606;2023-03-14T00:55:43;14.88;;;3.25;;
43580;SDS011;29175;51.030;4.606;2023-03-14T00:58:11;13.00;;;3.05;;
43580;SDS011;29175;51.030;4.606;2023-03-14T01:00:39;12.33;;;3.13;;
43580;SDS011;29175;51.030;4.606;2023-03-14T01:03:05;11.68;;;2.97;;
43580;SDS011;29175;51.030;4.606;2023-03-14T01:05:31;13.57;;;3.22;;
43580;SDS011;29175;51.030;4.606;2023-03-14T01:07:57;19.02;;;3.42;;
43580;SDS011;29175;51.030;4.606;2023-03-14T01:10:23;13.82;;;3.13;;
43580;SDS011;29175;51.030;4.606;2023-03-14T01:12:49;19.23;;;3.75;;
43580;SDS011;29175;51.030;4.606;2023-03-14T01:15:15;12.07;;;3.20;;
43580;SDS011;29175;51.030;4.606;2023-03-14T01:17:41;10.32;;;3.30;;
43580;SDS011;29175;51.030;4.606;2023-03-14T01:20:08;8.82;;;3.20;;
43580;SDS011;29175;51.030;4.606;2023-03-14T01:22:36;9.43;;;3.20;;
43580;SDS011;29175;51.030;4.606;2023-03-14T01:25:05;9.48;;;3.00;;
43580;SDS011;29175;51.030;4.606;2023-03-14T01:27:32;13.15;;;3.53;;
43580;SDS011;29175;51.030;4.606;2023-03-14T01:29:58;13.90;;;3.25;;
43580;SDS011;29175;51.030;4.606;2023-03-14T01:32:24;14.18;;;3.05;;
43580;SDS011;29175;51.030;4.606;2023-03-14T01:34:50;13.23;;;3.10;;
43580;SDS011;29175;51.030;4.606;2023-03-14T01:37:17;13.93;;;4.45;;
43580;SDS011;29175;51.030;4.606;2023-03-14T01:39:42;25.52;;;3.92;;
43580;SDS011;29175;51.030;4.606;2023-03-14T01:42:08;10.02;;;3.17;;
43580;SDS011;29175;51.030;4.606;2023-03-14T01:44:48;14.43;;;3.20;;
43580;SDS011;29175;51.030;4.606;2023-03-14T01:47:14;12.68;;;3.30;;
43580;SDS011;29175;51.030;4.606;2023-03-14T01:49:39;12.07;;;3.22;;
43580;SDS011;29175;51.030;4.606;2023-03-14T01:55:14;13.30;;;2.72;;
43580;SDS011;29175;51.030;4.606;2023-03-14T01:57:47;8.88;;;2.83;;
43580;SDS011;29175;51.030;4.606;2023-03-14T02:00:21;13.57;;;3.38;;
43580;SDS011;29175;51.030;4.606;2023-03-14T02:02:49;18.25;;;3.63;;
43580;SDS011;29175;51.030;4.606;2023-03-14T02:05:19;12.95;;;2.85;;
43580;SDS011;29175;51.030;4.606;2023-03-14T02:10:17;10.45;;;2.58;;
43580;SDS011;29175;51.030;4.606;2023-03-14T02:12:45;11.02;;;2.88;;
43580;SDS011;29175;51.030;4.606;2023-03-14T02:15:12;11.93;;;3.10;;
43580;SDS011;29175;51.030;4.606;2023-03-14T02:17:38;13.70;;;2.88;;
43580;SDS011;29175;51.030;4.606;2023-03-14T02:23:12;11.98;;;2.55;;
43580;SDS011;29175;51.030;4.606;2023-03-14T02:28:23;6.95;;;2.33;;
43580;SDS011;29175;51.030;4.606;2023-03-14T02:30:49;17.60;;;3.25;;
43580;SDS011;29175;51.030;4.606;2023-03-14T02:33:18;11.52;;;2.67;;
43580;SDS011;29175;51.030;4.606;2023-03-14T02:35:56;6.05;;;1.85;;
43580;SDS011;29175;51.030;4.606;2023-03-14T02:38:29;12.27;;;2.58;;
43580;SDS011;29175;51.030;4.606;2023-03-14T02:41:00;9.85;;;2.17;;
43580;SDS011;29175;51.030;4.606;2023-03-14T02:43:25;8.43;;;2.10;;
43580;SDS011;29175;51.030;4.606;2023-03-14T02:45:51;8.10;;;2.00;;
43580;SDS011;29175;51.030;4.606;2023-03-14T02:48:31;4.68;;;1.65;;
43580;SDS011;29175;51.030;4.606;2023-03-14T02:51:05;5.97;;;1.55;;
43580;SDS011;29175;51.030;4.606;2023-03-14T02:53:34;3.55;;;1.60;;
43580;SDS011;29175;51.030;4.606;2023-03-14T02:56:02;10.82;;;1.73;;
43580;SDS011;29175;51.030;4.606;2023-03-14T02:58:28;6.40;;;1.75;;
43580;SDS011;29175;51.030;4.606;2023-03-14T03:00:54;8.82;;;1.98;;
43580;SDS011;29175;51.030;4.606;2023-03-14T03:03:20;13.77;;;1.98;;
43580;SDS011;29175;51.030;4.606;2023-03-14T03:05:53;5.50;;;1.52;;
43580;SDS011;29175;51.030;4.606;2023-03-14T03:08:20;5.22;;;2.05;;
43580;SDS011;29175;51.030;4.606;2023-03-14T03:10:47;4.03;;;1.77;;
43580;SDS011;29175;51.030;4.606;2023-03-14T03:13:13;5.25;;;1.73;;
43580;SDS011;29175;51.030;4.606;2023-03-14T03:15:39;5.15;;;1.55;;
43580;SDS011;29175;51.030;4.606;2023-03-14T03:18:06;9.88;;;2.60;;
43580;SDS011;29175;51.030;4.606;2023-03-14T03:20:32;5.18;;;1.77;;
43580;SDS011;29175;51.030;4.606;2023-03-14T03:23:01;9.65;;;1.83;;
43580;SDS011;29175;51.030;4.606;2023-03-14T03:25:27;7.50;;;2.07;;
43580;SDS011;29175;51.030;4.606;2023-03-14T03:27:53;8.25;;;1.90;;
43580;SDS011;29175;51.030;4.606;2023-03-14T03:30:19;12.55;;;2.47;;
43580;SDS011;29175;51.030;4.606;2023-03-14T03:32:45;11.05;;;2.60;;
43580;SDS011;29175;51.030;4.606;2023-03-14T03:35:11;5.38;;;2.30;;
43580;SDS011;29175;51.030;4.606;2023-03-14T03:37:37;4.28;;;1.92;;
43580;SDS011;29175;51.030;4.606;2023-03-14T03:40:03;7.70;;;2.25;;
43580;SDS011;29175;51.030;4.606;2023-03-14T03:42:31;19.23;;;3.47;;
43580;SDS011;29175;51.030;4.606;2023-03-14T03:44:58;10.75;;;2.65;;
43580;SDS011;29175;51.030;4.606;2023-03-14T03:47:25;9.60;;;2.60;;
43580;SDS011;29175;51.030;4.606;2023-03-14T03:49:51;8.63;;;2.47;;
43580;SDS011;29175;51.030;4.606;2023-03-14T03:52:16;14.77;;;2.47;;
43580;SDS011;29175;51.030;4.606;2023-03-14T03:54:42;6.15;;;2.50;;
43580;SDS011;29175;51.030;4.606;2023-03-14T03:57:08;12.90;;;3.25;;
43580;SDS011;29175;51.030;4.606;2023-03-14T03:59:34;19.17;;;3.30;;
43580;SDS011;29175;51.030;4.606;2023-03-14T04:02:00;10.30;;;3.00;;
43580;SDS011;29175;51.030;4.606;2023-03-14T04:04:26;12.00;;;3.40;;
43580;SDS011;29175;51.030;4.606;2023-03-14T04:06:52;12.32;;;3.60;;
43580;SDS011;29175;51.030;4.606;2023-03-14T04:09:18;12.27;;;3.38;;
43580;SDS011;29175;51.030;4.606;2023-03-14T04:11:44;10.48;;;3.92;;
43580;SDS011;29175;51.030;4.606;2023-03-14T04:14:09;11.02;;;3.85;;
43580;SDS011;29175;51.030;4.606;2023-03-14T04:16:35;14.32;;;4.65;;
43580;SDS011;29175;51.030;4.606;2023-03-14T04:19:02;15.85;;;4.80;;
43580;SDS011;29175;51.030;4.606;2023-03-14T04:21:28;10.43;;;3.47;;
43580;SDS011;29175;51.030;4.606;2023-03-14T04:23:54;11.63;;;3.85;;
43580;SDS011;29175;51.030;4.606;2023-03-14T04:26:20;16.73;;;4.20;;
43580;SDS011;29175;51.030;4.606;2023-03-14T04:28:46;12.70;;;4.32;;
43580;SDS011;29175;51.030;4.606;2023-03-14T04:31:16;17.77;;;4.38;;
43580;SDS011;29175;51.030;4.606;2023-03-14T04:33:44;17.40;;;4.03;;
43580;SDS011;29175;51.030;4.606;2023-03-14T04:36:10;17.25;;;4.07;;
43580;SDS011;29175;51.030;4.606;2023-03-14T04:38:37;15.68;;;4.07;;
43580;SDS011;29175;51.030;4.606;2023-03-14T04:41:03;10.25;;;3.92;;
43580;SDS011;29175;51.030;4.606;2023-03-14T04:43:29;24.33;;;5.07;;
43580;SDS011;29175;51.030;4.606;2023-03-14T04:45:55;14.02;;;4.13;;
43580;SDS011;29175;51.030;4.606;2023-03-14T04:48:23;11.02;;;3.97;;
43580;SDS011;29175;51.030;4.606;2023-03-14T04:50:50;7.53;;;3.50;;
43580;SDS011;29175;51.030;4.606;2023-03-14T04:53:17;17.38;;;4.15;;
43580;SDS011;29175;51.030;4.606;2023-03-14T04:55:47;13.65;;;4.18;;
43580;SDS011;29175;51.030;4.606;2023-03-14T04:58:17;13.73;;;4.18;;
43580;SDS011;29175;51.030;4.606;2023-03-14T05:00:44;12.48;;;4.32;;
43580;SDS011;29175;51.030;4.606;2023-03-14T05:03:10;9.75;;;4.10;;
43580;SDS011;29175;51.030;4.606;2023-03-14T05:05:35;11.50;;;4.60;;
43580;SDS011;29175;51.030;4.606;2023-03-14T05:08:01;12.60;;;4.15;;
43580;SDS011;29175;51.030;4.606;2023-03-14T05:10:27;11.20;;;4.95;;
43580;SDS011;29175;51.030;4.606;2023-03-14T05:12:53;14.05;;;5.05;;
43580;SDS011;29175;51.030;4.606;2023-03-14T05:15:19;8.77;;;4.55;;
43580;SDS011;29175;51.030;4.606;2023-03-14T05:17:45;14.32;;;4.75;;
43580;SDS011;29175;51.030;4.606;2023-03-14T05:20:11;12.10;;;4.95;;
43580;SDS011;29175;51.030;4.606;2023-03-14T05:22:40;10.35;;;4.63;;
43580;SDS011;29175;51.030;4.606;2023-03-14T05:25:06;19.10;;;5.03;;
43580;SDS011;29175;51.030;4.606;2023-03-14T05:27:33;12.70;;;4.78;;
43580;SDS011;29175;51.030;4.606;2023-03-14T05:29:59;14.02;;;5.22;;
43580;SDS011;29175;51.030;4.606;2023-03-14T05:32:25;10.05;;;4.15;;
43580;SDS011;29175;51.030;4.606;2023-03-14T05:34:51;13.23;;;5.05;;
43580;SDS011;29175;51.030;4.606;2023-03-14T05:37:17;10.35;;;4.25;;
43580;SDS011;29175;51.030;4.606;2023-03-14T05:39:43;9.43;;;4.20;;
43580;SDS011;29175;51.030;4.606;2023-03-14T05:42:08;14.93;;;4.63;;
43580;SDS011;29175;51.030;4.606;2023-03-14T05:44:34;17.60;;;5.07;;
43580;SDS011;29175;51.030;4.606;2023-03-14T05:47:00;10.10;;;4.82;;
43580;SDS011;29175;51.030;4.606;2023-03-14T05:49:26;10.00;;;3.97;;
43580;SDS011;29175;51.030;4.606;2023-03-14T05:51:52;12.90;;;4.20;;
43580;SDS011;29175;51.030;4.606;2023-03-14T05:54:18;13.23;;;4.18;;
43580;SDS011;29175;51.030;4.606;2023-03-14T05:56:44;13.52;;;4.93;;
43580;SDS011;29175;51.030;4.606;2023-03-14T05:59:09;9.27;;;3.55;;
43580;SDS011;29175;51.030;4.606;2023-03-14T06:01:35;15.80;;;4.25;;
43580;SDS011;29175;51.030;4.606;2023-03-14T06:04:01;8.70;;;3.75;;
43580;SDS011;29175;51.030;4.606;2023-03-14T06:06:27;7.18;;;3.42;;
43580;SDS011;29175;51.030;4.606;2023-03-14T06:08:53;10.68;;;3.72;;
43580;SDS011;29175;51.030;4.606;2023-03-14T06:11:19;8.00;;;3.47;;
43580;SDS011;29175;51.030;4.606;2023-03-14T06:13:44;7.15;;;3.30;;
43580;SDS011;29175;51.030;4.606;2023-03-14T06:16:11;8.32;;;3.38;;
43580;SDS011;29175;51.030;4.606;2023-03-14T06:18:38;13.05;;;3.90;;
43580;SDS011;29175;51.030;4.606;2023-03-14T06:21:03;9.50;;;3.40;;
43580;SDS011;29175;51.030;4.606;2023-03-14T06:23:30;11.60;;;3.78;;
43580;SDS011;29175;51.030;4.606;2023-03-14T06:25:57;11.95;;;3.65;;
43580;SDS011;29175;51.030;4.606;2023-03-14T06:28:22;7.90;;;3.33;;
43580;SDS011;29175;51.030;4.606;2023-03-14T06:30:48;7.03;;;3.40;;
43580;SDS011;29175;51.030;4.606;2023-03-14T06:33:14;9.88;;;3.75;;
43580;SDS011;29175;51.030;4.606;2023-03-14T06:35:40;12.32;;;4.38;;
43580;SDS011;29175;51.030;4.606;2023-03-14T06:38:06;8.90;;;3.95;;
43580;SDS011;29175;51.030;4.606;2023-03-14T06:40:32;12.23;;;4.25;;
43580;SDS011;29175;51.030;4.606;2023-03-14T06:42:57;13.00;;;4.78;;
43580;SDS011;29175;51.030;4.606;2023-03-14T06:45:23;10.18;;;4.15;;
43580;SDS011;29175;51.030;4.606;2023-03-14T06:47:49;11.63;;;4.45;;
43580;SDS011;29175;51.030;4.606;2023-03-14T06:50:15;18.25;;;4.63;;
43580;SDS011;29175;51.030;4.606;2023-03-14T06:52:41;17.83;;;5.22;;
43580;SDS011;29175;51.030;4.606;2023-03-14T06:55:12;9.85;;;4.43;;
43580;SDS011;29175;51.030;4.606;2023-03-14T06:57:39;8.02;;;3.55;;
43580;SDS011;29175;51.030;4.606;2023-03-14T07:00:05;6.18;;;2.78;;
43580;SDS011;29175;51.030;4.606;2023-03-14T07:02:31;5.38;;;3.03;;
43580;SDS011;29175;51.030;4.606;2023-03-14T07:04:57;5.60;;;2.42;;
43580;SDS011;29175;51.030;4.606;2023-03-14T07:07:23;6.57;;;3.00;;
43580;SDS011;29175;51.030;4.606;2023-03-14T07:09:49;9.40;;;3.55;;
43580;SDS011;29175;51.030;4.606;2023-03-14T07:12:15;3.85;;;3.00;;
43580;SDS011;29175;51.030;4.606;2023-03-14T07:14:40;4.28;;;2.83;;
43580;SDS011;29175;51.030;4.606;2023-03-14T07:17:06;5.72;;;2.30;;
43580;SDS011;29175;51.030;4.606;2023-03-14T07:19:32;7.20;;;2.67;;
43580;SDS011;29175;51.030;4.606;2023-03-14T07:21:58;4.57;;;2.53;;
43580;SDS011;29175;51.030;4.606;2023-03-14T07:24:24;4.15;;;2.38;;
43580;SDS011;29175;51.030;4.606;2023-03-14T07:26:50;15.65;;;2.90;;
43580;SDS011;29175;51.030;4.606;2023-03-14T07:29:16;6.95;;;2.35;;
43580;SDS011;29175;51.030;4.606;2023-03-14T07:31:42;4.72;;;2.17;;
43580;SDS011;29175;51.030;4.606;2023-03-14T07:34:08;6.63;;;2.30;;
43580;SDS011;29175;51.030;4.606;2023-03-14T07:36:34;5.88;;;2.25;;
43580;SDS011;29175;51.030;4.606;2023-03-14T07:39:00;5.20;;;1.75;;
43580;SDS011;29175;51.030;4.606;2023-03-14T07:41:26;19.52;;;2.30;;
43580;SDS011;29175;51.030;4.606;2023-03-14T07:43:52;5.25;;;2.35;;
43580;SDS011;29175;51.030;4.606;2023-03-14T07:46:18;8.38;;;3.15;;
43580;SDS011;29175;51.030;4.606;2023-03-14T07:48:44;4.13;;;2.20;;
43580;SDS011;29175;51.030;4.606;2023-03-14T07:51:09;6.25;;;2.70;;
43580;SDS011;29175;51.030;4.606;2023-03-14T07:53:35;10.15;;;3.30;;
43580;SDS011;29175;51.030;4.606;2023-03-14T07:56:01;18.48;;;3.72;;
43580;SDS011;29175;51.030;4.606;2023-03-14T07:58:27;11.85;;;3.10;;
43580;SDS011;29175;51.030;4.606;2023-03-14T08:00:53;10.13;;;3.30;;
43580;SDS011;29175;51.030;4.606;2023-03-14T08:03:18;10.45;;;3.50;;
43580;SDS011;29175;51.030;4.606;2023-03-14T08:05:48;11.30;;;3.15;;
43580;SDS011;29175;51.030;4.606;2023-03-14T08:08:15;12.48;;;3.92;;
43580;SDS011;29175;51.030;4.606;2023-03-14T08:10:41;12.30;;;3.80;;
43580;SDS011;29175;51.030;4.606;2023-03-14T08:13:08;10.70;;;3.20;;
43580;SDS011;29175;51.030;4.606;2023-03-14T08:15:34;9.73;;;3.63;;
43580;SDS011;29175;51.030;4.606;2023-03-14T08:18:01;8.68;;;3.05;;
43580;SDS011;29175;51.030;4.606;2023-03-14T08:20:28;10.07;;;3.83;;
43580;SDS011;29175;51.030;4.606;2023-03-14T08:22:57;16.58;;;3.80;;
43580;SDS011;29175;51.030;4.606;2023-03-14T08:25:23;13.40;;;3.53;;
43580;SDS011;29175;51.030;4.606;2023-03-14T08:27:50;8.95;;;3.00;;
43580;SDS011;29175;51.030;4.606;2023-03-14T08:30:16;10.10;;;2.30;;
43580;SDS011;29175;51.030;4.606;2023-03-14T08:32:43;8.63;;;2.83;;
43580;SDS011;29175;51.030;4.606;2023-03-14T08:35:09;5.10;;;2.55;;
43580;SDS011;29175;51.030;4.606;2023-03-14T08:37:36;9.13;;;2.78;;
43580;SDS011;29175;51.030;4.606;2023-03-14T08:40:03;9.63;;;2.65;;
43580;SDS011;29175;51.030;4.606;2023-03-14T08:42:35;8.95;;;2.30;;
43580;SDS011;29175;51.030;4.606;2023-03-14T08:45:02;9.68;;;2.65;;
43580;SDS011;29175;51.030;4.606;2023-03-14T08:47:28;10.02;;;2.33;;
43580;SDS011;29175;51.030;4.606;2023-03-14T08:49:54;6.35;;;1.80;;
43580;SDS011;29175;51.030;4.606;2023-03-14T08:52:20;5.80;;;1.80;;
43580;SDS011;29175;51.030;4.606;2023-03-14T08:54:47;4.07;;;2.15;;
43580;SDS011;29175;51.030;4.606;2023-03-14T08:57:13;7.65;;;2.38;;
43580;SDS011;29175;51.030;4.606;2023-03-14T08:59:39;8.80;;;2.65;;
43580;SDS011;29175;51.030;4.606;2023-03-14T09:02:05;6.85;;;2.50;;
43580;SDS011;29175;51.030;4.606;2023-03-14T09:04:31;5.80;;;2.03;;
43580;SDS011;29175;51.030;4.606;2023-03-14T09:06:57;7.47;;;2.40;;
43580;SDS011;29175;51.030;4.606;2023-03-14T09:09:24;13.73;;;3.10;;
43580;SDS011;29175;51.030;4.606;2023-03-14T09:11:52;10.77;;;1.80;;
43580;SDS011;29175;51.030;4.606;2023-03-14T09:14:17;5.07;;;1.83;;
43580;SDS011;29175;51.030;4.606;2023-03-14T09:16:43;6.18;;;2.30;;
43580;SDS011;29175;51.030;4.606;2023-03-14T09:19:09;6.65;;;1.80;;
43580;SDS011;29175;51.030;4.606;2023-03-14T09:21:35;4.95;;;1.90;;
43580;SDS011;29175;51.030;4.606;2023-03-14T09:24:02;12.80;;;3.05;;
43580;SDS011;29175;51.030;4.606;2023-03-14T09:26:28;9.85;;;2.20;;
43580;SDS011;29175;51.030;4.606;2023-03-14T09:28:54;6.30;;;2.13;;
43580;SDS011;29175;51.030;4.606;2023-03-14T09:31:20;4.18;;;2.20;;
43580;SDS011;29175;51.030;4.606;2023-03-14T09:33:46;6.00;;;2.83;;
43580;SDS011;29175;51.030;4.606;2023-03-14T09:36:12;11.25;;;3.13;;
43580;SDS011;29175;51.030;4.606;2023-03-14T09:38:38;4.70;;;3.05;;
43580;SDS011;29175;51.030;4.606;2023-03-14T09:41:11;9.90;;;3.90;;
43580;SDS011;29175;51.030;4.606;2023-03-14T09:43:43;11.52;;;4.53;;
43580;SDS011;29175;51.030;4.606;2023-03-14T09:46:11;8.82;;;3.88;;
43580;SDS011;29175;51.030;4.606;2023-03-14T09:48:38;11.00;;;5.47;;
43580;SDS011;29175;51.030;4.606;2023-03-14T09:51:07;11.88;;;4.70;;
43580;SDS011;29175;51.030;4.606;2023-03-14T09:53:40;9.63;;;4.80;;
43580;SDS011;29175;51.030;4.606;2023-03-14T09:56:11;3.30;;;1.60;;
43580;SDS011;29175;51.030;4.606;2023-03-14T09:58:45;4.90;;;1.45;;
43580;SDS011;29175;51.030;4.606;2023-03-14T10:01:21;4.10;;;1.80;;
43580;SDS011;29175;51.030;4.606;2023-03-14T10:03:50;3.67;;;2.15;;
43580;SDS011;29175;51.030;4.606;2023-03-14T10:06:18;3.00;;;1.98;;
43580;SDS011;29175;51.030;4.606;2023-03-14T10:08:45;5.72;;;3.30;;
43580;SDS011;29175;51.030;4.606;2023-03-14T10:11:17;12.13;;;3.53;;
43580;SDS011;29175;51.030;4.606;2023-03-14T10:13:49;9.57;;;3.50;;
43580;SDS011;29175;51.030;4.606;2023-03-14T10:16:15;7.70;;;3.60;;
43580;SDS011;29175;51.030;4.606;2023-03-14T10:18:44;7.10;;;3.67;;
43580;SDS011;29175;51.030;4.606;2023-03-14T10:21:44;9.10;;;3.00;;
43580;SDS011;29175;51.030;4.606;2023-03-14T10:24:15;8.82;;;2.83;;
43580;SDS011;29175;51.030;4.606;2023-03-14T10:26:47;5.00;;;2.97;;
43580;SDS011;29175;51.030;4.606;2023-03-14T10:29:16;6.47;;;2.63;;
43580;SDS011;29175;51.030;4.606;2023-03-14T10:34:29;9.18;;;2.78;;
43580;SDS011;29175;51.030;4.606;2023-03-14T10:37:21;4.20;;;2.35;;
43580;SDS011;29175;51.030;4.606;2023-03-14T10:39:49;7.22;;;2.10;;
43580;SDS011;29175;51.030;4.606;2023-03-14T10:42:27;6.38;;;2.05;;
43580;SDS011;29175;51.030;4.606;2023-03-14T10:45:00;4.13;;;2.50;;
43580;SDS011;29175;51.030;4.606;2023-03-14T10:47:29;5.68;;;2.78;;
43580;SDS011;29175;51.030;4.606;2023-03-14T10:49:57;12.20;;;3.38;;
43580;SDS011;29175;51.030;4.606;2023-03-14T10:52:49;6.80;;;3.30;;
43580;SDS011;29175;51.030;4.606;2023-03-14T10:55:16;10.30;;;3.47;;
43580;SDS011;29175;51.030;4.606;2023-03-14T10:57:42;6.65;;;2.97;;
43580;SDS011;29175;51.030;4.606;2023-03-14T11:00:18;9.25;;;3.67;;
43580;SDS011;29175;51.030;4.606;2023-03-14T11:05:24;7.40;;;3.53;;
43580;SDS011;29175;51.030;4.606;2023-03-14T11:07:52;7.20;;;3.60;;
43580;SDS011;29175;51.030;4.606;2023-03-14T11:10:26;7.15;;;3.55;;
43580;SDS011;29175;51.030;4.606;2023-03-14T11:13:05;6.03;;;3.15;;
43580;SDS011;29175;51.030;4.606;2023-03-14T11:18:51;4.70;;;2.85;;
43580;SDS011;29175;51.030;4.606;2023-03-14T11:27:03;6.13;;;2.90;;
43580;SDS011;29175;51.030;4.606;2023-03-14T11:32:25;5.07;;;2.53;;
43580;SDS011;29175;51.030;4.606;2023-03-14T11:34:55;9.35;;;3.05;;
43580;SDS011;29175;51.030;4.606;2023-03-14T11:37:25;12.73;;;2.72;;
43580;SDS011;29175;51.030;4.606;2023-03-14T11:40:17;6.47;;;2.67;;
43580;SDS011;29175;51.030;4.606;2023-03-14T11:45:45;3.65;;;1.90;;
43580;SDS011;29175;51.030;4.606;2023-03-14T11:48:20;9.65;;;2.78;;
43580;SDS011;29175;51.030;4.606;2023-03-14T11:51:01;3.85;;;1.83;;
43580;SDS011;29175;51.030;4.606;2023-03-14T11:56:25;5.03;;;2.10;;
43580;SDS011;29175;51.030;4.606;2023-03-14T11:59:05;6.38;;;2.28;;
43580;SDS011;29175;51.030;4.606;2023-03-14T12:01:44;5.57;;;2.08;;
43580;SDS011;29175;51.030;4.606;2023-03-14T12:07:09;9.70;;;3.45;;
43580;SDS011;29175;51.030;4.606;2023-03-14T12:09:58;12.75;;;2.53;;
43580;SDS011;29175;51.030;4.606;2023-03-14T12:12:25;18.23;;;3.15;;
43580;SDS011;29175;51.030;4.606;2023-03-14T12:14:54;9.70;;;3.00;;
43580;SDS011;29175;51.030;4.606;2023-03-14T12:17:37;10.82;;;3.35;;
43580;SDS011;29175;51.030;4.606;2023-03-14T12:22:52;11.20;;;3.67;;
43580;SDS011;29175;51.030;4.606;2023-03-14T12:25:24;23.25;;;4.55;;
43580;SDS011;29175;51.030;4.606;2023-03-14T12:35:42;34.45;;;4.70;;
43580;SDS011;29175;51.030;4.606;2023-03-14T12:38:12;13.43;;;3.70;;
43580;SDS011;29175;51.030;4.606;2023-03-14T12:40:47;23.55;;;4.53;;
43580;SDS011;29175;51.030;4.606;2023-03-14T12:43:30;15.85;;;3.70;;
43580;SDS011;29175;51.030;4.606;2023-03-14T12:48:54;16.50;;;4.07;;
43580;SDS011;29175;51.030;4.606;2023-03-14T12:51:26;24.38;;;4.35;;
43580;SDS011;29175;51.030;4.606;2023-03-14T13:01:52;25.75;;;4.25;;
43580;SDS011;29175;51.030;4.606;2023-03-14T13:04:26;16.08;;;4.10;;
43580;SDS011;29175;51.030;4.606;2023-03-14T13:07:00;29.13;;;4.75;;
43580;SDS011;29175;51.030;4.606;2023-03-14T13:14:33;25.02;;;5.55;;
43580;SDS011;29175;51.030;4.606;2023-03-14T13:17:03;27.58;;;4.68;;
43580;SDS011;29175;51.030;4.606;2023-03-14T13:19:30;15.73;;;4.75;;
43580;SDS011;29175;51.030;4.606;2023-03-14T13:22:02;23.60;;;4.97;;
43580;SDS011;29175;51.030;4.606;2023-03-14T13:24:33;19.98;;;5.15;;
43580;SDS011;29175;51.030;4.606;2023-03-14T13:26:59;21.25;;;5.57;;
43580;SDS011;29175;51.030;4.606;2023-03-14T13:29:29;20.15;;;5.32;;
43580;SDS011;29175;51.030;4.606;2023-03-14T13:31:57;13.35;;;4.65;;
43580;SDS011;29175;51.030;4.606;2023-03-14T13:34:28;20.70;;;5.32;;
43580;SDS011;29175;51.030;4.606;2023-03-14T13:36:58;18.55;;;5.30;;
43580;SDS011;29175;51.030;4.606;2023-03-14T13:39:25;27.75;;;5.43;;
43580;SDS011;29175;51.030;4.606;2023-03-14T13:41:54;24.92;;;5.28;;
43580;SDS011;29175;51.030;4.606;2023-03-14T13:46:52;17.75;;;4.90;;
43580;SDS011;29175;51.030;4.606;2023-03-14T13:49:23;33.60;;;5.55;;
43580;SDS011;29175;51.030;4.606;2023-03-14T13:51:50;18.15;;;4.18;;
43580;SDS011;29175;51.030;4.606;2023-03-14T13:54:17;25.58;;;5.80;;
43580;SDS011;29175;51.030;4.606;2023-03-14T13:56:44;20.95;;;5.43;;
43580;SDS011;29175;51.030;4.606;2023-03-14T13:59:24;22.38;;;4.82;;
43580;SDS011;29175;51.030;4.606;2023-03-14T14:01:52;18.27;;;4.53;;
43580;SDS011;29175;51.030;4.606;2023-03-14T14:04:23;16.60;;;4.28;;
43580;SDS011;29175;51.030;4.606;2023-03-14T14:09:24;38.40;;;4.95;;
43580;SDS011;29175;51.030;4.606;2023-03-14T14:14:40;19.80;;;4.15;;
43580;SDS011;29175;51.030;4.606;2023-03-14T14:17:26;15.18;;;3.00;;
43580;SDS011;29175;51.030;4.606;2023-03-14T14:19:55;17.75;;;3.15;;
43580;SDS011;29175;51.030;4.606;2023-03-14T14:22:21;9.82;;;2.67;;
43580;SDS011;29175;51.030;4.606;2023-03-14T14:24:48;15.73;;;3.78;;
43580;SDS011;29175;51.030;4.606;2023-03-14T14:27:17;10.63;;;2.80;;
43580;SDS011;29175;51.030;4.606;2023-03-14T14:30:03;10.00;;;2.53;;
43580;SDS011;29175;51.030;4.606;2023-03-14T14:32:34;16.58;;;2.97;;
43580;SDS011;29175;51.030;4.606;2023-03-14T14:35:02;13.00;;;3.17;;
43580;SDS011;29175;51.030;4.606;2023-03-14T14:37:33;11.60;;;2.90;;
43580;SDS011;29175;51.030;4.606;2023-03-14T14:40:05;15.00;;;2.67;;
43580;SDS011;29175;51.030;4.606;2023-03-14T14:42:35;8.45;;;1.75;;
43580;SDS011;29175;51.030;4.606;2023-03-14T14:45:06;5.10;;;1.60;;
43580;SDS011;29175;51.030;4.606;2023-03-14T14:47:47;8.82;;;2.80;;
43580;SDS011;29175;51.030;4.606;2023-03-14T14:50:29;8.18;;;2.03;;
43580;SDS011;29175;51.030;4.606;2023-03-14T14:52:57;7.07;;;2.08;;
43580;SDS011;29175;51.030;4.606;2023-03-14T14:55:31;3.22;;;1.73;;
43580;SDS011;29175;51.030;4.606;2023-03-14T14:58:18;6.10;;;1.80;;
43580;SDS011;29175;51.030;4.606;2023-03-14T15:03:18;6.35;;;1.88;;
43580;SDS011;29175;51.030;4.606;2023-03-14T15:05:44;2.97;;;1.52;;
43580;SDS011;29175;51.030;4.606;2023-03-14T15:08:10;4.68;;;1.63;;
43580;SDS011;29175;51.030;4.606;2023-03-14T15:10:37;9.63;;;1.77;;
43580;SDS011;29175;51.030;4.606;2023-03-14T15:13:03;7.15;;;1.75;;
43580;SDS011;29175;51.030;4.606;2023-03-14T15:15:29;8.95;;;2.35;;
43580;SDS011;29175;51.030;4.606;2023-03-14T15:17:55;6.00;;;1.90;;
43580;SDS011;29175;51.030;4.606;2023-03-14T15:20:21;6.95;;;1.80;;
43580;SDS011;29175;51.030;4.606;2023-03-14T15:22:49;6.43;;;1.90;;
43580;SDS011;29175;51.030;4.606;2023-03-14T15:25:16;7.43;;;1.70;;
43580;SDS011;29175;51.030;4.606;2023-03-14T15:27:41;7.45;;;2.00;;
43580;SDS011;29175;51.030;4.606;2023-03-14T15:30:14;8.18;;;2.50;;
43580;SDS011;29175;51.030;4.606;2023-03-14T15:32:40;7.63;;;2.20;;
43580;SDS011;29175;51.030;4.606;2023-03-14T15:35:07;9.25;;;2.58;;
43580;SDS011;29175;51.030;4.606;2023-03-14T15:37:33;8.30;;;2.45;;
43580;SDS011;29175;51.030;4.606;2023-03-14T15:40:00;9.32;;;2.65;;
43580;SDS011;29175;51.030;4.606;2023-03-14T15:42:28;11.13;;;2.47;;
43580;SDS011;29175;51.030;4.606;2023-03-14T15:44:54;12.40;;;2.58;;
43580;SDS011;29175;51.030;4.606;2023-03-14T15:47:19;18.98;;;2.83;;
43580;SDS011;29175;51.030;4.606;2023-03-14T15:49:45;12.13;;;3.22;;
43580;SDS011;29175;51.030;4.606;2023-03-14T15:52:11;15.52;;;3.92;;
43580;SDS011;29175;51.030;4.606;2023-03-14T15:54:37;13.30;;;3.78;;
43580;SDS011;29175;51.030;4.606;2023-03-14T15:57:03;14.07;;;3.45;;
43580;SDS011;29175;51.030;4.606;2023-03-14T15:59:28;8.23;;;2.72;;
43580;SDS011;29175;51.030;4.606;2023-03-14T16:01:54;16.02;;;3.50;;